sensor_id;sensor_type;location;lat;lon;timestamp;temperature;humidity
70368;DHT22;57789;53.868;10.728;2023-03-03T00:00:39;0.50;99.90
70368;DHT22;57789;53.868;10.728;2023-03-03T00:03:07;0.40;99.90
70368;DHT22;57789;53.868;10.728;2023-03-03T00:05:34;0.50;99.90
70368;DHT22;57789;53.868;10.728;2023-03-03T00:08:00;0.70;99.90
70368;DHT22;57789;53.868;10.728;2023-03-03T00:10:26;0.70;99.90
70368;DHT22;57789;53.868;10.728;2023-03-03T00:12:52;0.60;99.90
70368;DHT22;57789;53.868;10.728;2023-03-03T00:15:23;0.40;99.90
70368;DHT22;57789;53.868;10.728;2023-03-03T00:17:49;0.20;99.90
70368;DHT22;57789;53.868;10.728;2023-03-03T00:20:36;0.30;99.90
70368;DHT22;57789;53.868;10.728;2023-03-03T00:25:57;0.30;99.90
70368;DHT22;57789;53.868;10.728;2023-03-03T00:28:44;0.30;99.90
70368;DHT22;57789;53.868;10.728;2023-03-03T00:31:17;0.20;99.90
70368;DHT22;57789;53.868;10.728;2023-03-03T00:33:54;0.30;99.90
70368;DHT22;57789;53.868;10.728;2023-03-03T00:36:36;0.30;99.90
70368;DHT22;57789;53.868;10.728;2023-03-03T00:39:30;0.20;99.90
70368;DHT22;57789;53.868;10.728;2023-03-03T00:41:58;0.30;99.90
70368;DHT22;57789;53.868;10.728;2023-03-03T00:44:41;0.00;99.90
70368;DHT22;57789;53.868;10.728;2023-03-03T00:47:26;0.10;99.90
70368;DHT22;57789;53.868;10.728;2023-03-03T00:49:58;0.10;99.90
70368;DHT22;57789;53.868;10.728;2023-03-03T00:52:28;0.00;99.90
70368;DHT22;57789;53.868;10.728;2023-03-03T00:54:54;-0.20;99.90
70368;DHT22;57789;53.868;10.728;2023-03-03T00:57:19;-0.30;99.90
70368;DHT22;57789;53.868;10.728;2023-03-03T00:59:45;-0.30;99.90
70368;DHT22;57789;53.868;10.728;2023-03-03T01:02:11;0.00;99.90
70368;DHT22;57789;53.868;10.728;2023-03-03T01:04:36;-0.10;99.90
70368;DHT22;57789;53.868;10.728;2023-03-03T01:07:02;-0.10;99.90
70368;DHT22;57789;53.868;10.728;2023-03-03T01:09:28;-0.20;99.90
70368;DHT22;57789;53.868;10.728;2023-03-03T01:11:54;-0.10;99.90
70368;DHT22;57789;53.868;10.728;2023-03-03T01:14:19;0.00;99.90
70368;DHT22;57789;53.868;10.728;2023-03-03T01:16:45;-0.10;99.90
70368;DHT22;57789;53.868;10.728;2023-03-03T01:19:11;0.10;99.90
70368;DHT22;57789;53.868;10.728;2023-03-03T01:21:37;0.10;99.90
70368;DHT22;57789;53.868;10.728;2023-03-03T01:24:04;0.00;99.90
70368;DHT22;57789;53.868;10.728;2023-03-03T01:26:30;0.00;99.90
70368;DHT22;57789;53.868;10.728;2023-03-03T01:28:55;0.00;99.90
70368;DHT22;57789;53.868;10.728;2023-03-03T01:31:21;-0.10;99.90
70368;DHT22;57789;53.868;10.728;2023-03-03T01:33:47;-0.10;99.90
70368;DHT22;57789;53.868;10.728;2023-03-03T01:36:12;-0.20;99.90
70368;DHT22;57789;53.868;10.728;2023-03-03T01:38:38;-0.20;99.90
70368;DHT22;57789;53.868;10.728;2023-03-03T01:41:04;-0.30;99.90
70368;DHT22;57789;53.868;10.728;2023-03-03T01:43:31;-0.30;99.90
70368;DHT22;57789;53.868;10.728;2023-03-03T01:48:32;-0.40;99.90
70368;DHT22;57789;53.868;10.728;2023-03-03T01:51:14;-0.50;99.90
70368;DHT22;57789;53.868;10.728;2023-03-03T01:53:56;-0.50;99.90
70368;DHT22;57789;53.868;10.728;2023-03-03T01:56:23;-0.60;99.90
70368;DHT22;57789;53.868;10.728;2023-03-03T01:58:59;-0.50;99.90
70368;DHT22;57789;53.868;10.728;2023-03-03T02:01:27;-0.40;99.90
70368;DHT22;57789;53.868;10.728;2023-03-03T02:03:54;-0.40;99.90
70368;DHT22;57789;53.868;10.728;2023-03-03T02:06:23;-0.30;99.90
70368;DHT22;57789;53.868;10.728;2023-03-03T02:09:08;-0.30;99.90
70368;DHT22;57789;53.868;10.728;2023-03-03T02:11:36;-0.20;99.90
70368;DHT22;57789;53.868;10.728;2023-03-03T02:14:02;-0.20;99.90
70368;DHT22;57789;53.868;10.728;2023-03-03T02:16:28;-0.20;99.90
70368;DHT22;57789;53.868;10.728;2023-03-03T02:18:55;-0.10;99.90
70368;DHT22;57789;53.868;10.728;2023-03-03T02:21:22;-0.20;99.90
70368;DHT22;57789;53.868;10.728;2023-03-03T02:24:08;-0.30;99.90
70368;DHT22;57789;53.868;10.728;2023-03-03T02:26:39;-0.20;99.90
70368;DHT22;57789;53.868;10.728;2023-03-03T02:29:06;-0.30;99.90
70368;DHT22;57789;53.868;10.728;2023-03-03T02:31:32;-0.30;99.90
70368;DHT22;57789;53.868;10.728;2023-03-03T02:33:58;-0.20;99.90
70368;DHT22;57789;53.868;10.728;2023-03-03T02:36:32;-0.20;99.90
70368;DHT22;57789;53.868;10.728;2023-03-03T02:39:18;-0.20;99.90
70368;DHT22;57789;53.868;10.728;2023-03-03T02:41:48;-0.10;99.90
70368;DHT22;57789;53.868;10.728;2023-03-03T02:44:18;-0.20;99.90
70368;DHT22;57789;53.868;10.728;2023-03-03T02:46:46;-0.20;99.90
70368;DHT22;57789;53.868;10.728;2023-03-03T02:49:15;-0.20;99.90
70368;DHT22;57789;53.868;10.728;2023-03-03T02:51:41;-0.20;99.90
70368;DHT22;57789;53.868;10.728;2023-03-03T02:54:08;-0.20;99.90
70368;DHT22;57789;53.868;10.728;2023-03-03T02:56:34;-0.30;99.90
70368;DHT22;57789;53.868;10.728;2023-03-03T02:59:00;-0.30;99.90
70368;DHT22;57789;53.868;10.728;2023-03-03T03:01:26;-0.20;99.90
70368;DHT22;57789;53.868;10.728;2023-03-03T03:03:52;-0.10;99.90
70368;DHT22;57789;53.868;10.728;2023-03-03T03:06:18;-0.10;99.90
70368;DHT22;57789;53.868;10.728;2023-03-03T03:08:44;-0.10;99.90
70368;DHT22;57789;53.868;10.728;2023-03-03T03:11:10;-0.10;99.90
70368;DHT22;57789;53.868;10.728;2023-03-03T03:13:35;-0.20;99.90
70368;DHT22;57789;53.868;10.728;2023-03-03T03:16:01;-0.20;99.90
70368;DHT22;57789;53.868;10.728;2023-03-03T03:18:27;-0.20;99.90
70368;DHT22;57789;53.868;10.728;2023-03-03T03:20:52;-0.20;99.90
70368;DHT22;57789;53.868;10.728;2023-03-03T03:23:18;-0.30;99.90
70368;DHT22;57789;53.868;10.728;2023-03-03T03:25:46;-0.30;99.90
70368;DHT22;57789;53.868;10.728;2023-03-03T03:28:16;-0.40;99.90
70368;DHT22;57789;53.868;10.728;2023-03-03T03:30:43;-0.30;99.90
70368;DHT22;57789;53.868;10.728;2023-03-03T03:33:10;-0.30;99.90
70368;DHT22;57789;53.868;10.728;2023-03-03T03:35:37;-0.40;99.90
70368;DHT22;57789;53.868;10.728;2023-03-03T03:38:03;-0.40;99.90
70368;DHT22;57789;53.868;10.728;2023-03-03T03:40:28;-0.40;99.90
70368;DHT22;57789;53.868;10.728;2023-03-03T03:42:54;-0.50;99.90
70368;DHT22;57789;53.868;10.728;2023-03-03T03:45:21;-0.50;99.90
70368;DHT22;57789;53.868;10.728;2023-03-03T03:47:47;-0.70;99.90
70368;DHT22;57789;53.868;10.728;2023-03-03T03:50:13;-0.70;99.90
70368;DHT22;57789;53.868;10.728;2023-03-03T03:52:39;-0.70;99.90
70368;DHT22;57789;53.868;10.728;2023-03-03T03:55:05;-0.80;99.90
70368;DHT22;57789;53.868;10.728;2023-03-03T03:57:30;-0.70;99.90
70368;DHT22;57789;53.868;10.728;2023-03-03T03:59:56;-0.60;99.90
70368;DHT22;57789;53.868;10.728;2023-03-03T04:02:22;-0.50;99.90
70368;DHT22;57789;53.868;10.728;2023-03-03T04:04:47;-0.40;99.90
70368;DHT22;57789;53.868;10.728;2023-03-03T04:07:13;-0.50;99.90
70368;DHT22;57789;53.868;10.728;2023-03-03T04:09:39;-0.50;99.90
70368;DHT22;57789;53.868;10.728;2023-03-03T04:12:04;-0.70;99.90
70368;DHT22;57789;53.868;10.728;2023-03-03T04:14:30;-0.70;99.90
70368;DHT22;57789;53.868;10.728;2023-03-03T04:16:56;-0.60;99.90
70368;DHT22;57789;53.868;10.728;2023-03-03T04:19:22;-0.70;99.90
70368;DHT22;57789;53.868;10.728;2023-03-03T04:21:47;-0.60;99.90
70368;DHT22;57789;53.868;10.728;2023-03-03T04:24:13;-0.60;99.90
70368;DHT22;57789;53.868;10.728;2023-03-03T04:26:39;-0.60;99.90
70368;DHT22;57789;53.868;10.728;2023-03-03T04:29:04;-0.60;99.90
70368;DHT22;57789;53.868;10.728;2023-03-03T04:31:30;-0.60;99.90
70368;DHT22;57789;53.868;10.728;2023-03-03T04:33:56;-0.70;99.90
70368;DHT22;57789;53.868;10.728;2023-03-03T04:36:22;-0.60;99.90
70368;DHT22;57789;53.868;10.728;2023-03-03T04:38:48;-0.80;99.90
70368;DHT22;57789;53.868;10.728;2023-03-03T04:41:14;-0.80;99.90
70368;DHT22;57789;53.868;10.728;2023-03-03T04:43:40;-0.70;99.90
70368;DHT22;57789;53.868;10.728;2023-03-03T04:46:05;-0.70;99.90
70368;DHT22;57789;53.868;10.728;2023-03-03T04:48:31;-0.70;99.90
70368;DHT22;57789;53.868;10.728;2023-03-03T04:50:56;-0.80;99.90
70368;DHT22;57789;53.868;10.728;2023-03-03T04:53:22;-0.80;99.90
70368;DHT22;57789;53.868;10.728;2023-03-03T04:55:52;-0.80;99.90
70368;DHT22;57789;53.868;10.728;2023-03-03T04:58:19;-0.80;99.90
70368;DHT22;57789;53.868;10.728;2023-03-03T05:00:53;-0.70;99.90
70368;DHT22;57789;53.868;10.728;2023-03-03T05:03:20;-0.70;99.90
70368;DHT22;57789;53.868;10.728;2023-03-03T05:05:46;-0.80;99.90
70368;DHT22;57789;53.868;10.728;2023-03-03T05:08:12;-0.90;99.90
70368;DHT22;57789;53.868;10.728;2023-03-03T05:10:38;-0.80;99.90
70368;DHT22;57789;53.868;10.728;2023-03-03T05:13:04;-0.90;99.90
70368;DHT22;57789;53.868;10.728;2023-03-03T05:15:30;-0.90;99.90
70368;DHT22;57789;53.868;10.728;2023-03-03T05:17:56;-0.90;99.90
70368;DHT22;57789;53.868;10.728;2023-03-03T05:20:23;-0.90;99.90
70368;DHT22;57789;53.868;10.728;2023-03-03T05:22:49;-0.80;99.90
70368;DHT22;57789;53.868;10.728;2023-03-03T05:25:15;-0.70;99.90
70368;DHT22;57789;53.868;10.728;2023-03-03T05:27:41;-0.60;99.90
70368;DHT22;57789;53.868;10.728;2023-03-03T05:30:09;-0.60;99.90
70368;DHT22;57789;53.868;10.728;2023-03-03T05:32:35;-0.70;99.90
70368;DHT22;57789;53.868;10.728;2023-03-03T05:35:01;-0.60;99.90
70368;DHT22;57789;53.868;10.728;2023-03-03T05:37:27;-0.70;99.90
70368;DHT22;57789;53.868;10.728;2023-03-03T05:39:52;-0.90;99.90
70368;DHT22;57789;53.868;10.728;2023-03-03T05:42:18;-1.00;99.90
70368;DHT22;57789;53.868;10.728;2023-03-03T05:44:44;-1.00;99.90
70368;DHT22;57789;53.868;10.728;2023-03-03T05:47:09;-1.20;99.90
70368;DHT22;57789;53.868;10.728;2023-03-03T05:49:35;-1.10;99.90
70368;DHT22;57789;53.868;10.728;2023-03-03T05:52:01;-1.10;99.90
70368;DHT22;57789;53.868;10.728;2023-03-03T05:54:27;-1.20;99.90
70368;DHT22;57789;53.868;10.728;2023-03-03T05:56:52;-1.20;99.90
70368;DHT22;57789;53.868;10.728;2023-03-03T05:59:18;-1.30;99.90
70368;DHT22;57789;53.868;10.728;2023-03-03T06:01:44;-1.30;99.90
70368;DHT22;57789;53.868;10.728;2023-03-03T06:04:09;-1.20;99.90
70368;DHT22;57789;53.868;10.728;2023-03-03T06:06:35;-1.20;99.90
70368;DHT22;57789;53.868;10.728;2023-03-03T06:09:01;-1.20;99.90
70368;DHT22;57789;53.868;10.728;2023-03-03T06:11:27;-1.10;99.90
70368;DHT22;57789;53.868;10.728;2023-03-03T06:13:52;-1.10;99.90
70368;DHT22;57789;53.868;10.728;2023-03-03T06:16:18;-1.20;99.90
70368;DHT22;57789;53.868;10.728;2023-03-03T06:18:45;-1.10;99.90
70368;DHT22;57789;53.868;10.728;2023-03-03T06:21:10;-1.00;99.90
70368;DHT22;57789;53.868;10.728;2023-03-03T06:23:36;-1.00;99.90
70368;DHT22;57789;53.868;10.728;2023-03-03T06:26:02;-1.10;99.90
70368;DHT22;57789;53.868;10.728;2023-03-03T06:28:27;-1.00;99.90
70368;DHT22;57789;53.868;10.728;2023-03-03T06:30:54;-1.00;99.90
70368;DHT22;57789;53.868;10.728;2023-03-03T06:33:20;-1.00;99.90
70368;DHT22;57789;53.868;10.728;2023-03-03T06:35:54;-1.00;99.90
70368;DHT22;57789;53.868;10.728;2023-03-03T06:38:20;-1.10;99.90
70368;DHT22;57789;53.868;10.728;2023-03-03T06:40:46;-1.20;99.90
70368;DHT22;57789;53.868;10.728;2023-03-03T06:43:12;-1.20;99.90
70368;DHT22;57789;53.868;10.728;2023-03-03T06:45:38;-1.20;99.90
70368;DHT22;57789;53.868;10.728;2023-03-03T06:48:04;-1.10;99.90
70368;DHT22;57789;53.868;10.728;2023-03-03T06:50:30;-1.30;99.90
70368;DHT22;57789;53.868;10.728;2023-03-03T06:53:06;-1.10;99.90
70368;DHT22;57789;53.868;10.728;2023-03-03T06:55:34;-1.10;99.90
70368;DHT22;57789;53.868;10.728;2023-03-03T06:58:00;-1.10;99.90
70368;DHT22;57789;53.868;10.728;2023-03-03T07:00:27;-1.00;99.90
70368;DHT22;57789;53.868;10.728;2023-03-03T07:03:11;-1.00;99.90
70368;DHT22;57789;53.868;10.728;2023-03-03T07:05:37;-0.90;99.90
70368;DHT22;57789;53.868;10.728;2023-03-03T07:08:05;-0.90;99.90
70368;DHT22;57789;53.868;10.728;2023-03-03T07:10:34;-1.00;99.90
70368;DHT22;57789;53.868;10.728;2023-03-03T07:15:51;-1.00;99.90
70368;DHT22;57789;53.868;10.728;2023-03-03T07:21:19;-0.90;99.90
70368;DHT22;57789;53.868;10.728;2023-03-03T07:23:48;-0.80;99.90
70368;DHT22;57789;53.868;10.728;2023-03-03T07:26:30;-0.60;99.90
70368;DHT22;57789;53.868;10.728;2023-03-03T07:28:57;-0.70;99.90
70368;DHT22;57789;53.868;10.728;2023-03-03T07:31:32;-0.80;99.90
70368;DHT22;57789;53.868;10.728;2023-03-03T07:33:59;-0.70;99.90
70368;DHT22;57789;53.868;10.728;2023-03-03T07:36:28;-0.80;99.90
70368;DHT22;57789;53.868;10.728;2023-03-03T07:39:00;-0.70;99.90
70368;DHT22;57789;53.868;10.728;2023-03-03T07:41:26;-0.70;99.90
70368;DHT22;57789;53.868;10.728;2023-03-03T07:44:06;-0.70;99.90
70368;DHT22;57789;53.868;10.728;2023-03-03T07:46:44;-0.70;99.90
70368;DHT22;57789;53.868;10.728;2023-03-03T07:51:46;-0.60;99.90
70368;DHT22;57789;53.868;10.728;2023-03-03T07:56:56;-0.20;99.90
70368;DHT22;57789;53.868;10.728;2023-03-03T07:59:26;-0.20;99.90
70368;DHT22;57789;53.868;10.728;2023-03-03T08:01:56;0.00;99.90
70368;DHT22;57789;53.868;10.728;2023-03-03T08:04:40;0.00;99.90
70368;DHT22;57789;53.868;10.728;2023-03-03T08:07:17;0.10;99.90
70368;DHT22;57789;53.868;10.728;2023-03-03T08:09:49;0.20;99.90
70368;DHT22;57789;53.868;10.728;2023-03-03T08:14:51;0.10;99.90
70368;DHT22;57789;53.868;10.728;2023-03-03T08:17:35;0.20;99.90
70368;DHT22;57789;53.868;10.728;2023-03-03T08:22:52;0.30;99.90
70368;DHT22;57789;53.868;10.728;2023-03-03T08:25:17;0.50;99.90
70368;DHT22;57789;53.868;10.728;2023-03-03T08:27:43;0.50;99.90
70368;DHT22;57789;53.868;10.728;2023-03-03T08:30:10;0.50;99.90
70368;DHT22;57789;53.868;10.728;2023-03-03T08:32:36;0.50;99.90
70368;DHT22;57789;53.868;10.728;2023-03-03T08:35:02;0.60;99.90
70368;DHT22;57789;53.868;10.728;2023-03-03T08:37:28;0.60;99.90
70368;DHT22;57789;53.868;10.728;2023-03-03T08:39:53;0.70;99.90
70368;DHT22;57789;53.868;10.728;2023-03-03T08:42:19;0.70;99.90
70368;DHT22;57789;53.868;10.728;2023-03-03T08:44:44;0.70;99.90
70368;DHT22;57789;53.868;10.728;2023-03-03T08:47:10;0.80;99.90
70368;DHT22;57789;53.868;10.728;2023-03-03T08:49:35;1.00;99.90
70368;DHT22;57789;53.868;10.728;2023-03-03T08:52:02;1.00;99.90
70368;DHT22;57789;53.868;10.728;2023-03-03T08:54:28;0.90;99.90
70368;DHT22;57789;53.868;10.728;2023-03-03T08:56:54;1.00;99.90
70368;DHT22;57789;53.868;10.728;2023-03-03T08:59:19;1.10;99.90
70368;DHT22;57789;53.868;10.728;2023-03-03T09:01:46;1.30;99.90
70368;DHT22;57789;53.868;10.728;2023-03-03T09:04:12;1.30;99.90
70368;DHT22;57789;53.868;10.728;2023-03-03T09:06:37;1.40;99.90
70368;DHT22;57789;53.868;10.728;2023-03-03T09:09:03;1.30;99.90
70368;DHT22;57789;53.868;10.728;2023-03-03T09:11:29;1.30;99.90
70368;DHT22;57789;53.868;10.728;2023-03-03T09:16:30;1.30;99.90
70368;DHT22;57789;53.868;10.728;2023-03-03T09:19:17;1.30;99.90
70368;DHT22;57789;53.868;10.728;2023-03-03T09:21:44;1.30;99.90
70368;DHT22;57789;53.868;10.728;2023-03-03T09:26:50;1.40;99.90
70368;DHT22;57789;53.868;10.728;2023-03-03T09:29:23;1.50;99.90
70368;DHT22;57789;53.868;10.728;2023-03-03T09:31:55;1.50;99.90
70368;DHT22;57789;53.868;10.728;2023-03-03T09:34:41;1.40;99.90
70368;DHT22;57789;53.868;10.728;2023-03-03T09:37:27;1.20;99.90
70368;DHT22;57789;53.868;10.728;2023-03-03T09:39:56;1.20;99.90
70368;DHT22;57789;53.868;10.728;2023-03-03T10:09:35;2.70;99.90
70368;DHT22;57789;53.868;10.728;2023-03-03T10:12:30;2.80;99.90
70368;DHT22;57789;53.868;10.728;2023-03-03T10:15:03;2.70;99.90
70368;DHT22;57789;53.868;10.728;2023-03-03T10:17:51;3.10;99.90
70368;DHT22;57789;53.868;10.728;2023-03-03T10:22:55;3.30;99.90
70368;DHT22;57789;53.868;10.728;2023-03-03T10:42:48;3.00;99.90
70368;DHT22;57789;53.868;10.728;2023-03-03T10:45:40;2.90;99.90
70368;DHT22;57789;53.868;10.728;2023-03-03T10:48:15;2.90;99.90
70368;DHT22;57789;53.868;10.728;2023-03-03T10:54:11;3.10;99.90
70368;DHT22;57789;53.868;10.728;2023-03-03T10:57:02;3.40;99.90
70368;DHT22;57789;53.868;10.728;2023-03-03T11:05:05;3.60;99.90
70368;DHT22;57789;53.868;10.728;2023-03-03T11:08:02;3.60;99.90
70368;DHT22;57789;53.868;10.728;2023-03-03T11:13:42;4.10;99.90
70368;DHT22;57789;53.868;10.728;2023-03-03T11:22:10;4.70;99.90
70368;DHT22;57789;53.868;10.728;2023-03-03T11:30:04;5.00;99.90
70368;DHT22;57789;53.868;10.728;2023-03-03T11:32:47;5.20;99.90
70368;DHT22;57789;53.868;10.728;2023-03-03T11:37:45;5.20;99.90
70368;DHT22;57789;53.868;10.728;2023-03-03T11:40:46;5.20;99.90
70368;DHT22;57789;53.868;10.728;2023-03-03T11:43:26;5.20;99.90
70368;DHT22;57789;53.868;10.728;2023-03-03T11:45:59;5.20;99.90
70368;DHT22;57789;53.868;10.728;2023-03-03T11:48:39;5.10;99.90
70368;DHT22;57789;53.868;10.728;2023-03-03T11:51:14;5.40;99.90
70368;DHT22;57789;53.868;10.728;2023-03-03T11:54:06;5.70;99.90
70368;DHT22;57789;53.868;10.728;2023-03-03T11:56:45;5.90;99.90
70368;DHT22;57789;53.868;10.728;2023-03-03T12:04:50;6.00;99.90
70368;DHT22;57789;53.868;10.728;2023-03-03T12:07:39;5.90;99.90
70368;DHT22;57789;53.868;10.728;2023-03-03T12:13:22;5.70;99.90
70368;DHT22;57789;53.868;10.728;2023-03-03T12:16:00;5.50;99.90
70368;DHT22;57789;53.868;10.728;2023-03-03T12:18:38;5.40;99.90
70368;DHT22;57789;53.868;10.728;2023-03-03T12:21:17;5.50;99.90
70368;DHT22;57789;53.868;10.728;2023-03-03T12:24:02;5.60;99.90
70368;DHT22;57789;53.868;10.728;2023-03-03T12:29:06;5.60;99.90
70368;DHT22;57789;53.868;10.728;2023-03-03T12:42:36;5.30;99.90
70368;DHT22;57789;53.868;10.728;2023-03-03T12:47:48;5.40;99.90
70368;DHT22;57789;53.868;10.728;2023-03-03T12:50:22;5.50;99.90
70368;DHT22;57789;53.868;10.728;2023-03-03T13:01:33;5.30;99.90
70368;DHT22;57789;53.868;10.728;2023-03-03T13:12:41;5.20;99.90
70368;DHT22;57789;53.868;10.728;2023-03-03T13:15:27;5.20;99.90
70368;DHT22;57789;53.868;10.728;2023-03-03T13:26:17;5.20;99.90
70368;DHT22;57789;53.868;10.728;2023-03-03T13:32:23;5.30;99.90
70368;DHT22;57789;53.868;10.728;2023-03-03T13:35:18;5.30;99.90
70368;DHT22;57789;53.868;10.728;2023-03-03T13:37:51;5.30;99.90
70368;DHT22;57789;53.868;10.728;2023-03-03T13:44:10;5.30;99.90
70368;DHT22;57789;53.868;10.728;2023-03-03T14:02:00;5.70;99.90
70368;DHT22;57789;53.868;10.728;2023-03-03T14:04:52;5.80;99.90
70368;DHT22;57789;53.868;10.728;2023-03-03T14:07:36;5.70;99.90
70368;DHT22;57789;53.868;10.728;2023-03-03T14:10:23;5.70;99.90
70368;DHT22;57789;53.868;10.728;2023-03-03T14:13:10;5.80;99.90
70368;DHT22;57789;53.868;10.728;2023-03-03T14:15:57;5.90;99.90
70368;DHT22;57789;53.868;10.728;2023-03-03T14:18:56;5.90;99.90
70368;DHT22;57789;53.868;10.728;2023-03-03T14:21:46;5.80;99.90
70368;DHT22;57789;53.868;10.728;2023-03-03T14:24:14;5.90;99.90
70368;DHT22;57789;53.868;10.728;2023-03-03T14:31:52;6.20;99.90
70368;DHT22;57789;53.868;10.728;2023-03-03T14:34:36;6.10;99.90
70368;DHT22;57789;53.868;10.728;2023-03-03T14:42:39;6.00;99.90
70368;DHT22;57789;53.868;10.728;2023-03-03T14:45:37;6.00;99.90
70368;DHT22;57789;53.868;10.728;2023-03-03T14:48:29;6.20;99.90
70368;DHT22;57789;53.868;10.728;2023-03-03T14:53:46;6.20;99.90
70368;DHT22;57789;53.868;10.728;2023-03-03T14:56:22;6.10;99.90
70368;DHT22;57789;53.868;10.728;2023-03-03T14:58:51;6.10;99.90
70368;DHT22;57789;53.868;10.728;2023-03-03T15:01:34;6.00;99.90
70368;DHT22;57789;53.868;10.728;2023-03-03T15:04:02;6.10;99.90
70368;DHT22;57789;53.868;10.728;2023-03-03T15:06:44;6.10;99.90
70368;DHT22;57789;53.868;10.728;2023-03-03T15:09:32;6.10;99.90
70368;DHT22;57789;53.868;10.728;2023-03-03T15:12:23;6.10;99.90
70368;DHT22;57789;53.868;10.728;2023-03-03T15:22:49;6.10;99.90
70368;DHT22;57789;53.868;10.728;2023-03-03T15:27:51;6.10;99.90
70368;DHT22;57789;53.868;10.728;2023-03-03T15:30:38;6.00;99.90
70368;DHT22;57789;53.868;10.728;2023-03-03T15:35:56;5.80;99.90
70368;DHT22;57789;53.868;10.728;2023-03-03T15:41:45;5.80;99.90
70368;DHT22;57789;53.868;10.728;2023-03-03T15:50:17;5.80;99.90
70368;DHT22;57789;53.868;10.728;2023-03-03T16:14:48;5.60;99.90
70368;DHT22;57789;53.868;10.728;2023-03-03T16:19:52;5.60;99.90
70368;DHT22;57789;53.868;10.728;2023-03-03T16:25:35;5.60;99.90
70368;DHT22;57789;53.868;10.728;2023-03-03T16:28:15;5.60;99.90
70368;DHT22;57789;53.868;10.728;2023-03-03T16:30:55;5.60;99.90
70368;DHT22;57789;53.868;10.728;2023-03-03T16:33:37;5.60;99.90
70368;DHT22;57789;53.868;10.728;2023-03-03T16:38:52;5.50;99.90
70368;DHT22;57789;53.868;10.728;2023-03-03T16:44:11;5.40;99.90
70368;DHT22;57789;53.868;10.728;2023-03-03T16:46:46;5.40;99.90
70368;DHT22;57789;53.868;10.728;2023-03-03T17:00:11;5.20;99.90
70368;DHT22;57789;53.868;10.728;2023-03-03T17:19:33;4.80;99.90
70368;DHT22;57789;53.868;10.728;2023-03-03T17:25:35;4.80;99.90
70368;DHT22;57789;53.868;10.728;2023-03-03T17:28:24;4.80;99.90
70368;DHT22;57789;53.868;10.728;2023-03-03T17:33:40;4.70;99.90
70368;DHT22;57789;53.868;10.728;2023-03-03T17:36:50;4.70;99.90
70368;DHT22;57789;53.868;10.728;2023-03-03T17:47:52;4.70;99.90
70368;DHT22;57789;53.868;10.728;2023-03-03T17:50:34;4.70;99.90
70368;DHT22;57789;53.868;10.728;2023-03-03T17:56:15;4.60;99.90
70368;DHT22;57789;53.868;10.728;2023-03-03T18:04:52;4.60;99.90
70368;DHT22;57789;53.868;10.728;2023-03-03T18:07:47;4.50;99.90
70368;DHT22;57789;53.868;10.728;2023-03-03T18:23:43;4.40;99.90
70368;DHT22;57789;53.868;10.728;2023-03-03T18:26:31;4.40;99.90
70368;DHT22;57789;53.868;10.728;2023-03-03T18:35:13;4.30;99.90
70368;DHT22;57789;53.868;10.728;2023-03-03T18:37:39;4.30;99.90
70368;DHT22;57789;53.868;10.728;2023-03-03T18:42:36;4.30;99.90
70368;DHT22;57789;53.868;10.728;2023-03-03T18:51:06;4.30;99.90
70368;DHT22;57789;53.868;10.728;2023-03-03T18:53:29;4.30;99.90
70368;DHT22;57789;53.868;10.728;2023-03-03T18:56:00;4.30;99.90
70368;DHT22;57789;53.868;10.728;2023-03-03T18:58:38;4.20;99.90
70368;DHT22;57789;53.868;10.728;2023-03-03T19:04:18;4.20;99.90
70368;DHT22;57789;53.868;10.728;2023-03-03T19:09:19;4.20;99.90
70368;DHT22;57789;53.868;10.728;2023-03-03T19:12:08;4.20;99.90
70368;DHT22;57789;53.868;10.728;2023-03-03T19:14:38;4.20;99.90
70368;DHT22;57789;53.868;10.728;2023-03-03T19:22:46;4.10;99.90
70368;DHT22;57789;53.868;10.728;2023-03-03T19:25:19;4.10;99.90
70368;DHT22;57789;53.868;10.728;2023-03-03T19:38:59;3.90;99.90
70368;DHT22;57789;53.868;10.728;2023-03-03T19:44:16;3.90;99.90
70368;DHT22;57789;53.868;10.728;2023-03-03T19:47:08;3.90;99.90
70368;DHT22;57789;53.868;10.728;2023-03-03T19:49:49;3.90;99.90
70368;DHT22;57789;53.868;10.728;2023-03-03T19:54:55;3.80;99.90
70368;DHT22;57789;53.868;10.728;2023-03-03T20:00:14;3.80;99.90
70368;DHT22;57789;53.868;10.728;2023-03-03T20:08:20;3.80;99.90
70368;DHT22;57789;53.868;10.728;2023-03-03T20:11:15;3.80;99.90
70368;DHT22;57789;53.868;10.728;2023-03-03T20:13:57;3.80;99.90
70368;DHT22;57789;53.868;10.728;2023-03-03T20:16:38;3.80;99.90
70368;DHT22;57789;53.868;10.728;2023-03-03T20:19:39;3.80;99.90
70368;DHT22;57789;53.868;10.728;2023-03-03T20:22:12;3.80;99.90
70368;DHT22;57789;53.868;10.728;2023-03-03T20:28:04;3.80;99.90
70368;DHT22;57789;53.868;10.728;2023-03-03T20:31:41;3.80;99.90
70368;DHT22;57789;53.868;10.728;2023-03-03T20:39:19;3.90;99.90
70368;DHT22;57789;53.868;10.728;2023-03-03T20:47:54;4.00;99.90
70368;DHT22;57789;53.868;10.728;2023-03-03T20:53:35;4.10;99.90
70368;DHT22;57789;53.868;10.728;2023-03-03T21:02:20;4.20;99.90
70368;DHT22;57789;53.868;10.728;2023-03-03T21:07:33;4.40;99.90
70368;DHT22;57789;53.868;10.728;2023-03-03T21:10:14;4.30;99.90
70368;DHT22;57789;53.868;10.728;2023-03-03T21:12:41;4.30;99.90
70368;DHT22;57789;53.868;10.728;2023-03-03T21:15:20;4.30;99.90
70368;DHT22;57789;53.868;10.728;2023-03-03T21:17:47;4.40;99.90
70368;DHT22;57789;53.868;10.728;2023-03-03T21:20:28;4.40;99.90
70368;DHT22;57789;53.868;10.728;2023-03-03T21:22:55;4.40;99.90
70368;DHT22;57789;53.868;10.728;2023-03-03T21:28:32;4.50;99.90
70368;DHT22;57789;53.868;10.728;2023-03-03T21:33:58;4.60;99.90
70368;DHT22;57789;53.868;10.728;2023-03-03T21:38:58;4.70;99.90
70368;DHT22;57789;53.868;10.728;2023-03-03T21:41:26;4.70;99.90
70368;DHT22;57789;53.868;10.728;2023-03-03T21:43:52;4.70;99.90
70368;DHT22;57789;53.868;10.728;2023-03-03T21:46:19;4.70;99.90
70368;DHT22;57789;53.868;10.728;2023-03-03T21:48:45;4.70;99.90
70368;DHT22;57789;53.868;10.728;2023-03-03T21:51:11;4.70;99.90
70368;DHT22;57789;53.868;10.728;2023-03-03T21:53:43;4.70;99.90
70368;DHT22;57789;53.868;10.728;2023-03-03T21:56:10;4.70;99.90
70368;DHT22;57789;53.868;10.728;2023-03-03T21:58:38;4.80;99.90
70368;DHT22;57789;53.868;10.728;2023-03-03T22:01:05;4.90;99.90
70368;DHT22;57789;53.868;10.728;2023-03-03T22:03:31;4.80;99.90
70368;DHT22;57789;53.868;10.728;2023-03-03T22:05:57;4.90;99.90
70368;DHT22;57789;53.868;10.728;2023-03-03T22:08:22;4.90;99.90
70368;DHT22;57789;53.868;10.728;2023-03-03T22:10:49;4.90;99.90
70368;DHT22;57789;53.868;10.728;2023-03-03T22:13:18;4.80;99.90
70368;DHT22;57789;53.868;10.728;2023-03-03T22:15:46;4.80;99.90
70368;DHT22;57789;53.868;10.728;2023-03-03T22:18:12;4.80;99.90
70368;DHT22;57789;53.868;10.728;2023-03-03T22:20:38;4.80;99.90
70368;DHT22;57789;53.868;10.728;2023-03-03T22:23:03;4.90;99.90
70368;DHT22;57789;53.868;10.728;2023-03-03T22:25:29;4.90;99.90